sensor_id;sensor_type;location;lat;lon;timestamp;P1;durP1;ratioP1;P2;durP2;ratioP2
81716;SDS011;71269;44.108;3.074;2023-07-20T00:01:27;4.05;;;1.38;;
81716;SDS011;71269;44.108;3.074;2023-07-20T00:03:53;3.47;;;1.38;;
81716;SDS011;71269;44.108;3.074;2023-07-20T00:06:21;4.13;;;1.30;;
81716;SDS011;71269;44.108;3.074;2023-07-20T00:08:47;4.10;;;1.33;;
81716;SDS011;71269;44.108;3.074;2023-07-20T00:11:13;5.03;;;1.40;;
81716;SDS011;71269;44.108;3.074;2023-07-20T00:13:38;3.22;;;1.40;;
81716;SDS011;71269;44.108;3.074;2023-07-20T00:16:04;3.00;;;1.40;;
81716;SDS011;71269;44.108;3.074;2023-07-20T00:18:30;4.72;;;1.45;;
81716;SDS011;71269;44.108;3.074;2023-07-20T00:20:55;4.45;;;1.50;;
81716;SDS011;71269;44.108;3.074;2023-07-20T00:23:21;5.10;;;1.40;;
81716;SDS011;71269;44.108;3.074;2023-07-20T00:25:47;4.82;;;1.48;;
81716;SDS011;71269;44.108;3.074;2023-07-20T00:28:13;6.05;;;1.50;;
81716;SDS011;71269;44.108;3.074;2023-07-20T00:30:39;3.47;;;1.50;;
81716;SDS011;71269;44.108;3.074;2023-07-20T00:33:04;4.57;;;1.30;;
81716;SDS011;71269;44.108;3.074;2023-07-20T00:35:30;6.60;;;1.90;;
81716;SDS011;71269;44.108;3.074;2023-07-20T00:37:55;4.57;;;1.50;;
81716;SDS011;71269;44.108;3.074;2023-07-20T00:40:20;4.60;;;1.55;;
81716;SDS011;71269;44.108;3.074;2023-07-20T00:42:46;5.82;;;1.60;;
81716;SDS011;71269;44.108;3.074;2023-07-20T00:45:11;3.63;;;1.60;;
81716;SDS011;71269;44.108;3.074;2023-07-20T00:47:37;5.25;;;1.40;;
81716;SDS011;71269;44.108;3.074;2023-07-20T00:50:02;3.08;;;1.50;;
81716;SDS011;71269;44.108;3.074;2023-07-20T00:52:29;3.75;;;1.50;;
81716;SDS011;71269;44.108;3.074;2023-07-20T00:54:55;3.53;;;1.40;;
81716;SDS011;71269;44.108;3.074;2023-07-20T00:57:21;3.58;;;1.38;;
81716;SDS011;71269;44.108;3.074;2023-07-20T00:59:48;4.50;;;1.55;;
81716;SDS011;71269;44.108;3.074;2023-07-20T01:02:13;5.45;;;1.50;;
81716;SDS011;71269;44.108;3.074;2023-07-20T01:04:38;4.30;;;1.58;;
81716;SDS011;71269;44.108;3.074;2023-07-20T01:14:48;3.60;;;1.50;;
81716;SDS011;71269;44.108;3.074;2023-07-20T01:17:14;3.97;;;1.60;;
81716;SDS011;71269;44.108;3.074;2023-07-20T01:19:39;4.50;;;1.50;;
81716;SDS011;71269;44.108;3.074;2023-07-20T01:32:40;4.10;;;1.40;;
81716;SDS011;71269;44.108;3.074;2023-07-20T01:35:08;4.88;;;1.50;;
81716;SDS011;71269;44.108;3.074;2023-07-20T01:37:35;4.05;;;1.33;;
81716;SDS011;71269;44.108;3.074;2023-07-20T01:40:02;4.40;;;1.50;;
81716;SDS011;71269;44.108;3.074;2023-07-20T01:42:28;4.35;;;1.60;;
81716;SDS011;71269;44.108;3.074;2023-07-20T01:44:54;3.72;;;1.40;;
81716;SDS011;71269;44.108;3.074;2023-07-20T01:47:19;3.35;;;1.50;;
81716;SDS011;71269;44.108;3.074;2023-07-20T01:49:44;3.58;;;1.58;;
81716;SDS011;71269;44.108;3.074;2023-07-20T01:52:10;4.95;;;1.52;;
81716;SDS011;71269;44.108;3.074;2023-07-20T01:54:35;4.60;;;1.60;;
81716;SDS011;71269;44.108;3.074;2023-07-20T01:57:01;3.00;;;1.50;;
81716;SDS011;71269;44.108;3.074;2023-07-20T01:59:26;3.45;;;1.50;;
81716;SDS011;71269;44.108;3.074;2023-07-20T02:01:52;4.28;;;1.85;;
81716;SDS011;71269;44.108;3.074;2023-07-20T02:04:17;4.95;;;1.30;;
81716;SDS011;71269;44.108;3.074;2023-07-20T02:06:42;5.03;;;1.70;;
81716;SDS011;71269;44.108;3.074;2023-07-20T02:09:08;3.35;;;1.48;;
81716;SDS011;71269;44.108;3.074;2023-07-20T02:11:33;3.75;;;1.70;;
81716;SDS011;71269;44.108;3.074;2023-07-20T02:13:58;3.33;;;1.55;;
81716;SDS011;71269;44.108;3.074;2023-07-20T02:16:24;3.60;;;1.85;;
81716;SDS011;71269;44.108;3.074;2023-07-20T02:18:49;5.35;;;1.60;;
81716;SDS011;71269;44.108;3.074;2023-07-20T02:21:14;4.78;;;1.50;;
81716;SDS011;71269;44.108;3.074;2023-07-20T02:23:41;3.70;;;1.60;;
81716;SDS011;71269;44.108;3.074;2023-07-20T02:26:06;4.00;;;1.67;;
81716;SDS011;71269;44.108;3.074;2023-07-20T02:28:32;4.90;;;1.70;;
81716;SDS011;71269;44.108;3.074;2023-07-20T02:30:57;5.50;;;1.60;;
81716;SDS011;71269;44.108;3.074;2023-07-20T02:33:22;3.88;;;1.50;;
81716;SDS011;71269;44.108;3.074;2023-07-20T02:35:48;4.45;;;1.70;;
81716;SDS011;71269;44.108;3.074;2023-07-20T02:38:14;5.28;;;2.15;;
81716;SDS011;71269;44.108;3.074;2023-07-20T02:40:39;4.50;;;1.67;;
81716;SDS011;71269;44.108;3.074;2023-07-20T02:43:04;5.25;;;1.50;;
81716;SDS011;71269;44.108;3.074;2023-07-20T02:45:30;5.32;;;1.58;;
81716;SDS011;71269;44.108;3.074;2023-07-20T02:47:55;4.03;;;1.70;;
81716;SDS011;71269;44.108;3.074;2023-07-20T02:50:21;4.30;;;1.52;;
81716;SDS011;71269;44.108;3.074;2023-07-20T02:52:47;4.40;;;1.30;;
81716;SDS011;71269;44.108;3.074;2023-07-20T02:55:12;4.53;;;1.52;;
81716;SDS011;71269;44.108;3.074;2023-07-20T02:57:37;4.47;;;1.70;;
81716;SDS011;71269;44.108;3.074;2023-07-20T03:00:03;4.93;;;1.90;;
81716;SDS011;71269;44.108;3.074;2023-07-20T03:02:30;5.30;;;1.90;;
81716;SDS011;71269;44.108;3.074;2023-07-20T03:04:56;3.83;;;1.40;;
81716;SDS011;71269;44.108;3.074;2023-07-20T03:07:22;4.25;;;1.50;;
81716;SDS011;71269;44.108;3.074;2023-07-20T03:09:47;3.00;;;1.60;;
81716;SDS011;71269;44.108;3.074;2023-07-20T03:12:13;5.25;;;1.70;;
81716;SDS011;71269;44.108;3.074;2023-07-20T03:14:38;3.70;;;1.52;;
81716;SDS011;71269;44.108;3.074;2023-07-20T03:17:04;3.33;;;1.50;;
81716;SDS011;71269;44.108;3.074;2023-07-20T03:19:29;4.18;;;1.58;;
81716;SDS011;71269;44.108;3.074;2023-07-20T03:21:55;3.67;;;1.40;;
81716;SDS011;71269;44.108;3.074;2023-07-20T03:24:20;4.00;;;1.70;;
81716;SDS011;71269;44.108;3.074;2023-07-20T03:26:46;3.53;;;1.63;;
81716;SDS011;71269;44.108;3.074;2023-07-20T03:29:11;3.03;;;1.70;;
81716;SDS011;71269;44.108;3.074;2023-07-20T03:31:37;5.50;;;2.08;;
81716;SDS011;71269;44.108;3.074;2023-07-20T03:34:02;4.55;;;1.80;;
81716;SDS011;71269;44.108;3.074;2023-07-20T03:36:27;3.20;;;1.70;;
81716;SDS011;71269;44.108;3.074;2023-07-20T03:38:53;3.28;;;1.50;;
81716;SDS011;71269;44.108;3.074;2023-07-20T03:41:18;5.15;;;1.70;;
81716;SDS011;71269;44.108;3.074;2023-07-20T03:43:45;4.80;;;1.60;;
81716;SDS011;71269;44.108;3.074;2023-07-20T03:46:10;6.20;;;1.65;;
81716;SDS011;71269;44.108;3.074;2023-07-20T03:48:35;5.88;;;1.50;;
81716;SDS011;71269;44.108;3.074;2023-07-20T03:51:01;4.95;;;1.63;;
81716;SDS011;71269;44.108;3.074;2023-07-20T03:53:26;5.38;;;1.88;;
81716;SDS011;71269;44.108;3.074;2023-07-20T03:55:52;4.43;;;1.65;;
81716;SDS011;71269;44.108;3.074;2023-07-20T03:58:19;3.88;;;1.80;;
81716;SDS011;71269;44.108;3.074;2023-07-20T04:00:49;3.85;;;1.77;;
81716;SDS011;71269;44.108;3.074;2023-07-20T04:03:15;5.90;;;1.83;;
81716;SDS011;71269;44.108;3.074;2023-07-20T04:05:41;4.85;;;2.08;;
81716;SDS011;71269;44.108;3.074;2023-07-20T04:08:08;5.80;;;1.80;;
81716;SDS011;71269;44.108;3.074;2023-07-20T04:10:34;3.90;;;1.80;;
81716;SDS011;71269;44.108;3.074;2023-07-20T04:13:00;5.10;;;1.90;;
81716;SDS011;71269;44.108;3.074;2023-07-20T04:15:25;4.45;;;1.90;;
81716;SDS011;71269;44.108;3.074;2023-07-20T04:17:51;5.47;;;2.10;;
81716;SDS011;71269;44.108;3.074;2023-07-20T04:20:16;5.13;;;1.63;;
81716;SDS011;71269;44.108;3.074;2023-07-20T04:22:43;4.35;;;1.60;;
81716;SDS011;71269;44.108;3.074;2023-07-20T04:25:08;4.13;;;1.83;;
81716;SDS011;71269;44.108;3.074;2023-07-20T04:27:35;5.10;;;2.15;;
81716;SDS011;71269;44.108;3.074;2023-07-20T04:30:00;6.15;;;2.50;;
81716;SDS011;71269;44.108;3.074;2023-07-20T04:32:27;5.50;;;2.10;;
81716;SDS011;71269;44.108;3.074;2023-07-20T04:34:52;6.68;;;1.75;;
81716;SDS011;71269;44.108;3.074;2023-07-20T04:37:17;7.88;;;1.90;;
81716;SDS011;71269;44.108;3.074;2023-07-20T04:39:43;6.55;;;2.17;;
81716;SDS011;71269;44.108;3.074;2023-07-20T04:42:08;4.75;;;1.73;;
81716;SDS011;71269;44.108;3.074;2023-07-20T04:44:34;3.40;;;1.50;;
81716;SDS011;71269;44.108;3.074;2023-07-20T04:46:59;4.50;;;1.90;;
81716;SDS011;71269;44.108;3.074;2023-07-20T04:49:24;3.88;;;1.75;;
81716;SDS011;71269;44.108;3.074;2023-07-20T04:51:50;5.40;;;1.80;;
81716;SDS011;71269;44.108;3.074;2023-07-20T04:54:16;5.25;;;2.20;;
81716;SDS011;71269;44.108;3.074;2023-07-20T04:56:42;5.15;;;1.98;;
81716;SDS011;71269;44.108;3.074;2023-07-20T04:59:07;4.85;;;2.15;;
81716;SDS011;71269;44.108;3.074;2023-07-20T05:01:33;3.95;;;2.20;;
81716;SDS011;71269;44.108;3.074;2023-07-20T05:03:59;4.60;;;1.85;;
81716;SDS011;71269;44.108;3.074;2023-07-20T05:06:24;5.47;;;2.22;;
81716;SDS011;71269;44.108;3.074;2023-07-20T05:08:49;6.35;;;2.30;;
81716;SDS011;71269;44.108;3.074;2023-07-20T05:11:15;4.45;;;2.00;;
81716;SDS011;71269;44.108;3.074;2023-07-20T05:13:40;4.75;;;1.77;;
81716;SDS011;71269;44.108;3.074;2023-07-20T05:16:06;4.43;;;1.90;;
81716;SDS011;71269;44.108;3.074;2023-07-20T05:18:31;5.50;;;2.00;;
81716;SDS011;71269;44.108;3.074;2023-07-20T05:20:57;4.68;;;1.95;;
81716;SDS011;71269;44.108;3.074;2023-07-20T05:23:22;6.18;;;2.20;;
81716;SDS011;71269;44.108;3.074;2023-07-20T05:25:53;5.38;;;1.80;;
81716;SDS011;71269;44.108;3.074;2023-07-20T05:28:20;5.38;;;2.30;;
81716;SDS011;71269;44.108;3.074;2023-07-20T05:30:45;5.70;;;2.50;;
81716;SDS011;71269;44.108;3.074;2023-07-20T05:33:10;5.65;;;1.92;;
81716;SDS011;71269;44.108;3.074;2023-07-20T05:35:36;4.57;;;2.05;;
81716;SDS011;71269;44.108;3.074;2023-07-20T05:38:02;3.58;;;1.88;;
81716;SDS011;71269;44.108;3.074;2023-07-20T05:40:30;4.63;;;2.00;;
81716;SDS011;71269;44.108;3.074;2023-07-20T05:42:55;4.60;;;2.03;;
81716;SDS011;71269;44.108;3.074;2023-07-20T05:45:22;4.20;;;2.00;;
81716;SDS011;71269;44.108;3.074;2023-07-20T05:47:47;4.30;;;2.20;;
81716;SDS011;71269;44.108;3.074;2023-07-20T05:50:13;5.65;;;1.90;;
81716;SDS011;71269;44.108;3.074;2023-07-20T05:52:39;5.13;;;1.90;;
81716;SDS011;71269;44.108;3.074;2023-07-20T05:55:05;5.85;;;1.80;;
81716;SDS011;71269;44.108;3.074;2023-07-20T05:57:31;5.80;;;2.10;;
81716;SDS011;71269;44.108;3.074;2023-07-20T05:59:56;4.43;;;2.08;;
81716;SDS011;71269;44.108;3.074;2023-07-20T06:02:22;5.45;;;2.03;;
81716;SDS011;71269;44.108;3.074;2023-07-20T06:04:47;4.38;;;1.80;;
81716;SDS011;71269;44.108;3.074;2023-07-20T06:07:13;4.38;;;1.80;;
81716;SDS011;71269;44.108;3.074;2023-07-20T06:09:39;3.90;;;1.85;;
81716;SDS011;71269;44.108;3.074;2023-07-20T06:12:05;6.53;;;2.25;;
81716;SDS011;71269;44.108;3.074;2023-07-20T06:14:30;5.47;;;1.90;;
81716;SDS011;71269;44.108;3.074;2023-07-20T06:16:56;3.42;;;1.65;;
81716;SDS011;71269;44.108;3.074;2023-07-20T06:19:21;4.35;;;2.20;;
81716;SDS011;71269;44.108;3.074;2023-07-20T06:21:47;4.88;;;1.92;;
81716;SDS011;71269;44.108;3.074;2023-07-20T06:24:14;8.35;;;2.25;;
81716;SDS011;71269;44.108;3.074;2023-07-20T06:26:40;4.95;;;1.95;;
81716;SDS011;71269;44.108;3.074;2023-07-20T06:29:05;6.10;;;1.83;;
81716;SDS011;71269;44.108;3.074;2023-07-20T06:31:31;5.85;;;2.00;;
81716;SDS011;71269;44.108;3.074;2023-07-20T06:33:58;5.57;;;1.90;;
81716;SDS011;71269;44.108;3.074;2023-07-20T06:36:23;4.35;;;1.77;;
81716;SDS011;71269;44.108;3.074;2023-07-20T06:38:50;7.25;;;2.13;;
81716;SDS011;71269;44.108;3.074;2023-07-20T06:41:16;6.43;;;2.13;;
81716;SDS011;71269;44.108;3.074;2023-07-20T06:43:41;6.35;;;1.77;;
81716;SDS011;71269;44.108;3.074;2023-07-20T06:46:07;5.28;;;2.35;;
81716;SDS011;71269;44.108;3.074;2023-07-20T06:48:32;4.95;;;2.13;;
81716;SDS011;71269;44.108;3.074;2023-07-20T06:50:58;5.07;;;2.17;;
81716;SDS011;71269;44.108;3.074;2023-07-20T06:53:23;5.35;;;1.90;;
81716;SDS011;71269;44.108;3.074;2023-07-20T06:55:49;6.07;;;3.20;;
81716;SDS011;71269;44.108;3.074;2023-07-20T06:58:15;5.47;;;1.92;;
81716;SDS011;71269;44.108;3.074;2023-07-20T07:00:40;4.95;;;1.80;;
81716;SDS011;71269;44.108;3.074;2023-07-20T07:03:06;3.97;;;1.98;;
81716;SDS011;71269;44.108;3.074;2023-07-20T07:05:34;5.93;;;2.20;;
81716;SDS011;71269;44.108;3.074;2023-07-20T07:08:01;5.93;;;1.85;;
81716;SDS011;71269;44.108;3.074;2023-07-20T07:10:27;8.05;;;1.77;;
81716;SDS011;71269;44.108;3.074;2023-07-20T07:12:52;6.38;;;2.17;;
81716;SDS011;71269;44.108;3.074;2023-07-20T07:15:18;5.88;;;2.10;;
81716;SDS011;71269;44.108;3.074;2023-07-20T07:17:43;7.72;;;2.53;;
81716;SDS011;71269;44.108;3.074;2023-07-20T07:20:08;6.70;;;1.83;;
81716;SDS011;71269;44.108;3.074;2023-07-20T07:22:34;6.53;;;2.05;;
81716;SDS011;71269;44.108;3.074;2023-07-20T07:24:59;7.22;;;2.10;;
81716;SDS011;71269;44.108;3.074;2023-07-20T07:27:25;6.13;;;1.98;;
81716;SDS011;71269;44.108;3.074;2023-07-20T07:29:50;5.22;;;1.80;;
81716;SDS011;71269;44.108;3.074;2023-07-20T07:32:16;6.00;;;2.10;;
81716;SDS011;71269;44.108;3.074;2023-07-20T07:34:41;5.22;;;2.08;;
81716;SDS011;71269;44.108;3.074;2023-07-20T07:37:07;5.93;;;2.22;;
81716;SDS011;71269;44.108;3.074;2023-07-20T07:39:32;5.85;;;2.13;;
81716;SDS011;71269;44.108;3.074;2023-07-20T07:41:57;9.55;;;2.50;;
81716;SDS011;71269;44.108;3.074;2023-07-20T07:44:23;8.77;;;1.92;;
81716;SDS011;71269;44.108;3.074;2023-07-20T07:46:49;4.57;;;1.88;;
81716;SDS011;71269;44.108;3.074;2023-07-20T07:49:15;9.02;;;2.25;;
81716;SDS011;71269;44.108;3.074;2023-07-20T07:51:40;6.40;;;2.00;;
81716;SDS011;71269;44.108;3.074;2023-07-20T07:54:06;5.07;;;1.80;;
81716;SDS011;71269;44.108;3.074;2023-07-20T07:56:31;5.78;;;1.88;;
81716;SDS011;71269;44.108;3.074;2023-07-20T07:58:57;6.03;;;1.98;;
81716;SDS011;71269;44.108;3.074;2023-07-20T08:01:22;4.25;;;1.80;;
81716;SDS011;71269;44.108;3.074;2023-07-20T08:03:47;4.88;;;1.73;;
81716;SDS011;71269;44.108;3.074;2023-07-20T08:06:13;3.60;;;1.60;;
81716;SDS011;71269;44.108;3.074;2023-07-20T08:08:39;6.63;;;1.80;;
81716;SDS011;71269;44.108;3.074;2023-07-20T08:11:05;3.70;;;1.40;;
81716;SDS011;71269;44.108;3.074;2023-07-20T08:13:30;3.28;;;1.55;;
81716;SDS011;71269;44.108;3.074;2023-07-20T08:15:56;4.40;;;1.80;;
81716;SDS011;71269;44.108;3.074;2023-07-20T08:18:21;6.47;;;2.15;;
81716;SDS011;71269;44.108;3.074;2023-07-20T08:20:47;4.18;;;1.92;;
81716;SDS011;71269;44.108;3.074;2023-07-20T08:23:14;3.80;;;1.65;;
81716;SDS011;71269;44.108;3.074;2023-07-20T08:25:39;4.22;;;1.75;;
81716;SDS011;71269;44.108;3.074;2023-07-20T08:28:09;5.10;;;1.73;;
81716;SDS011;71269;44.108;3.074;2023-07-20T08:30:42;4.03;;;1.88;;
81716;SDS011;71269;44.108;3.074;2023-07-20T08:33:09;4.65;;;1.60;;
81716;SDS011;71269;44.108;3.074;2023-07-20T08:35:38;5.20;;;1.70;;
81716;SDS011;71269;44.108;3.074;2023-07-20T08:38:03;4.68;;;1.60;;
81716;SDS011;71269;44.108;3.074;2023-07-20T08:40:30;3.65;;;1.60;;
81716;SDS011;71269;44.108;3.074;2023-07-20T08:42:56;3.83;;;1.65;;
81716;SDS011;71269;44.108;3.074;2023-07-20T08:45:24;4.38;;;1.80;;
81716;SDS011;71269;44.108;3.074;2023-07-20T08:47:51;6.95;;;2.00;;
81716;SDS011;71269;44.108;3.074;2023-07-20T08:50:17;4.60;;;1.88;;
81716;SDS011;71269;44.108;3.074;2023-07-20T08:52:43;3.65;;;1.58;;
81716;SDS011;71269;44.108;3.074;2023-07-20T08:55:08;4.75;;;1.70;;
81716;SDS011;71269;44.108;3.074;2023-07-20T08:57:34;5.50;;;1.58;;
81716;SDS011;71269;44.108;3.074;2023-07-20T09:00:04;5.30;;;1.95;;
81716;SDS011;71269;44.108;3.074;2023-07-20T09:02:30;5.55;;;1.70;;
81716;SDS011;71269;44.108;3.074;2023-07-20T09:04:56;5.55;;;1.80;;
81716;SDS011;71269;44.108;3.074;2023-07-20T09:07:22;5.63;;;1.85;;
81716;SDS011;71269;44.108;3.074;2023-07-20T09:09:47;4.95;;;1.85;;
81716;SDS011;71269;44.108;3.074;2023-07-20T09:12:13;6.70;;;2.05;;
81716;SDS011;71269;44.108;3.074;2023-07-20T09:14:42;4.38;;;1.80;;
81716;SDS011;71269;44.108;3.074;2023-07-20T09:17:12;3.65;;;1.52;;
81716;SDS011;71269;44.108;3.074;2023-07-20T09:19:38;4.88;;;1.80;;
81716;SDS011;71269;44.108;3.074;2023-07-20T09:22:04;3.80;;;1.75;;
81716;SDS011;71269;44.108;3.074;2023-07-20T09:24:30;5.50;;;1.50;;
81716;SDS011;71269;44.108;3.074;2023-07-20T09:26:57;5.57;;;2.05;;
81716;SDS011;71269;44.108;3.074;2023-07-20T09:29:29;6.78;;;1.90;;
81716;SDS011;71269;44.108;3.074;2023-07-20T09:32:04;4.05;;;1.83;;
81716;SDS011;71269;44.108;3.074;2023-07-20T09:34:30;5.75;;;1.98;;
81716;SDS011;71269;44.108;3.074;2023-07-20T09:36:59;3.80;;;1.98;;
81716;SDS011;71269;44.108;3.074;2023-07-20T09:39:25;5.03;;;1.83;;
81716;SDS011;71269;44.108;3.074;2023-07-20T09:41:51;4.43;;;1.65;;
81716;SDS011;71269;44.108;3.074;2023-07-20T09:44:17;4.82;;;1.80;;
81716;SDS011;71269;44.108;3.074;2023-07-20T09:46:43;5.20;;;1.88;;
81716;SDS011;71269;44.108;3.074;2023-07-20T09:49:10;5.68;;;1.75;;
81716;SDS011;71269;44.108;3.074;2023-07-20T09:51:35;6.43;;;1.98;;
81716;SDS011;71269;44.108;3.074;2023-07-20T09:54:01;4.18;;;1.67;;
81716;SDS011;71269;44.108;3.074;2023-07-20T09:56:28;4.13;;;1.98;;
81716;SDS011;71269;44.108;3.074;2023-07-20T09:58:55;5.20;;;1.88;;
81716;SDS011;71269;44.108;3.074;2023-07-20T10:01:21;4.05;;;1.75;;
81716;SDS011;71269;44.108;3.074;2023-07-20T10:03:49;5.70;;;1.80;;
81716;SDS011;71269;44.108;3.074;2023-07-20T10:06:18;5.10;;;2.10;;
81716;SDS011;71269;44.108;3.074;2023-07-20T10:08:45;4.40;;;2.00;;
81716;SDS011;71269;44.108;3.074;2023-07-20T10:11:12;4.60;;;1.92;;
81716;SDS011;71269;44.108;3.074;2023-07-20T10:13:40;5.43;;;1.98;;
81716;SDS011;71269;44.108;3.074;2023-07-20T10:16:18;7.55;;;2.67;;
81716;SDS011;71269;44.108;3.074;2023-07-20T10:21:19;6.10;;;1.80;;
81716;SDS011;71269;44.108;3.074;2023-07-20T10:23:45;9.10;;;2.65;;
81716;SDS011;71269;44.108;3.074;2023-07-20T10:26:10;4.70;;;1.73;;
81716;SDS011;71269;44.108;3.074;2023-07-20T10:28:36;5.25;;;2.10;;
81716;SDS011;71269;44.108;3.074;2023-07-20T10:31:03;7.43;;;1.73;;
81716;SDS011;71269;44.108;3.074;2023-07-20T10:33:28;6.20;;;1.88;;
81716;SDS011;71269;44.108;3.074;2023-07-20T10:35:56;4.57;;;1.80;;
81716;SDS011;71269;44.108;3.074;2023-07-20T10:38:39;4.40;;;1.80;;
81716;SDS011;71269;44.108;3.074;2023-07-20T10:41:15;5.72;;;2.33;;
81716;SDS011;71269;44.108;3.074;2023-07-20T10:43:44;7.57;;;1.95;;
81716;SDS011;71269;44.108;3.074;2023-07-20T10:46:13;4.72;;;1.80;;
81716;SDS011;71269;44.108;3.074;2023-07-20T10:51:27;3.80;;;1.70;;
81716;SDS011;71269;44.108;3.074;2023-07-20T10:53:54;5.00;;;2.00;;
81716;SDS011;71269;44.108;3.074;2023-07-20T10:56:22;4.93;;;1.83;;
81716;SDS011;71269;44.108;3.074;2023-07-20T10:58:48;4.20;;;1.77;;
81716;SDS011;71269;44.108;3.074;2023-07-20T11:01:17;6.72;;;1.70;;
81716;SDS011;71269;44.108;3.074;2023-07-20T11:03:42;5.63;;;1.90;;
81716;SDS011;71269;44.108;3.074;2023-07-20T11:09:14;6.03;;;2.05;;
81716;SDS011;71269;44.108;3.074;2023-07-20T11:11:40;5.32;;;2.63;;
81716;SDS011;71269;44.108;3.074;2023-07-20T11:14:10;5.22;;;2.00;;
81716;SDS011;71269;44.108;3.074;2023-07-20T11:16:45;4.32;;;1.50;;
81716;SDS011;71269;44.108;3.074;2023-07-20T11:19:18;4.38;;;2.03;;
81716;SDS011;71269;44.108;3.074;2023-07-20T11:21:45;5.72;;;1.90;;
81716;SDS011;71269;44.108;3.074;2023-07-20T11:24:12;5.03;;;2.00;;
81716;SDS011;71269;44.108;3.074;2023-07-20T11:29:08;6.63;;;2.20;;
81716;SDS011;71269;44.108;3.074;2023-07-20T11:31:40;4.28;;;1.90;;
81716;SDS011;71269;44.108;3.074;2023-07-20T11:34:07;7.45;;;4.38;;
81716;SDS011;71269;44.108;3.074;2023-07-20T11:36:35;5.57;;;2.10;;
81716;SDS011;71269;44.108;3.074;2023-07-20T11:39:00;3.67;;;1.83;;
81716;SDS011;71269;44.108;3.074;2023-07-20T11:41:26;4.70;;;2.20;;
81716;SDS011;71269;44.108;3.074;2023-07-20T11:43:52;4.70;;;1.77;;
81716;SDS011;71269;44.108;3.074;2023-07-20T11:46:18;4.40;;;2.13;;
81716;SDS011;71269;44.108;3.074;2023-07-20T11:48:43;5.32;;;2.10;;
81716;SDS011;71269;44.108;3.074;2023-07-20T11:51:16;4.25;;;1.90;;
81716;SDS011;71269;44.108;3.074;2023-07-20T11:53:42;5.45;;;1.92;;
81716;SDS011;71269;44.108;3.074;2023-07-20T11:56:09;4.28;;;2.40;;
81716;SDS011;71269;44.108;3.074;2023-07-20T11:58:35;3.85;;;1.83;;
81716;SDS011;71269;44.108;3.074;2023-07-20T12:01:01;5.25;;;2.10;;
81716;SDS011;71269;44.108;3.074;2023-07-20T12:03:26;4.18;;;1.98;;
81716;SDS011;71269;44.108;3.074;2023-07-20T12:05:52;4.00;;;2.00;;
81716;SDS011;71269;44.108;3.074;2023-07-20T12:08:17;4.53;;;2.10;;
81716;SDS011;71269;44.108;3.074;2023-07-20T12:10:43;4.85;;;2.30;;
81716;SDS011;71269;44.108;3.074;2023-07-20T12:13:09;6.07;;;2.30;;
81716;SDS011;71269;44.108;3.074;2023-07-20T12:15:36;4.90;;;2.30;;
81716;SDS011;71269;44.108;3.074;2023-07-20T12:18:02;4.95;;;2.20;;
81716;SDS011;71269;44.108;3.074;2023-07-20T12:20:31;5.43;;;2.20;;
81716;SDS011;71269;44.108;3.074;2023-07-20T12:23:10;5.45;;;2.40;;
81716;SDS011;71269;44.108;3.074;2023-07-20T12:28:08;4.63;;;2.42;;
81716;SDS011;71269;44.108;3.074;2023-07-20T12:30:36;5.55;;;2.40;;
81716;SDS011;71269;44.108;3.074;2023-07-20T12:33:04;5.03;;;2.58;;
81716;SDS011;71269;44.108;3.074;2023-07-20T12:35:30;5.28;;;2.40;;
81716;SDS011;71269;44.108;3.074;2023-07-20T12:37:57;4.85;;;2.28;;
81716;SDS011;71269;44.108;3.074;2023-07-20T12:40:22;4.88;;;2.25;;
81716;SDS011;71269;44.108;3.074;2023-07-20T12:42:48;3.90;;;2.30;;
81716;SDS011;71269;44.108;3.074;2023-07-20T12:45:13;6.00;;;2.70;;
81716;SDS011;71269;44.108;3.074;2023-07-20T12:47:39;5.35;;;2.80;;
81716;SDS011;71269;44.108;3.074;2023-07-20T12:50:06;4.07;;;2.25;;
81716;SDS011;71269;44.108;3.074;2023-07-20T12:52:32;5.55;;;2.53;;
81716;SDS011;71269;44.108;3.074;2023-07-20T12:54:59;6.22;;;2.70;;
81716;SDS011;71269;44.108;3.074;2023-07-20T12:57:26;5.28;;;2.40;;
81716;SDS011;71269;44.108;3.074;2023-07-20T12:59:51;4.20;;;2.60;;
81716;SDS011;71269;44.108;3.074;2023-07-20T13:02:16;5.05;;;2.47;;
81716;SDS011;71269;44.108;3.074;2023-07-20T13:04:42;5.65;;;2.30;;
81716;SDS011;71269;44.108;3.074;2023-07-20T13:07:09;4.28;;;2.42;;
81716;SDS011;71269;44.108;3.074;2023-07-20T13:09:36;5.25;;;2.50;;
81716;SDS011;71269;44.108;3.074;2023-07-20T13:12:01;4.85;;;2.28;;
81716;SDS011;71269;44.108;3.074;2023-07-20T13:14:27;5.28;;;2.40;;
81716;SDS011;71269;44.108;3.074;2023-07-20T13:16:55;4.97;;;2.28;;
81716;SDS011;71269;44.108;3.074;2023-07-20T13:19:20;5.03;;;2.65;;
81716;SDS011;71269;44.108;3.074;2023-07-20T13:21:46;6.55;;;2.70;;
81716;SDS011;71269;44.108;3.074;2023-07-20T13:24:11;6.13;;;2.50;;
81716;SDS011;71269;44.108;3.074;2023-07-20T13:26:37;4.57;;;2.22;;
81716;SDS011;71269;44.108;3.074;2023-07-20T13:29:02;4.22;;;2.40;;
81716;SDS011;71269;44.108;3.074;2023-07-20T13:31:28;4.95;;;2.30;;
81716;SDS011;71269;44.108;3.074;2023-07-20T13:33:53;5.55;;;2.72;;
81716;SDS011;71269;44.108;3.074;2023-07-20T13:36:20;5.88;;;2.72;;
81716;SDS011;71269;44.108;3.074;2023-07-20T13:38:46;6.68;;;2.55;;
81716;SDS011;71269;44.108;3.074;2023-07-20T13:41:13;13.02;;;5.72;;
81716;SDS011;71269;44.108;3.074;2023-07-20T13:43:39;5.45;;;2.88;;
81716;SDS011;71269;44.108;3.074;2023-07-20T13:46:04;5.68;;;2.55;;
81716;SDS011;71269;44.108;3.074;2023-07-20T13:48:29;6.68;;;2.55;;
81716;SDS011;71269;44.108;3.074;2023-07-20T13:50:55;4.55;;;2.50;;
81716;SDS011;71269;44.108;3.074;2023-07-20T13:53:20;4.22;;;2.33;;
81716;SDS011;71269;44.108;3.074;2023-07-20T13:55:47;4.80;;;2.85;;
81716;SDS011;71269;44.108;3.074;2023-07-20T13:58:12;5.22;;;2.63;;
81716;SDS011;71269;44.108;3.074;2023-07-20T14:00:38;5.22;;;2.80;;
81716;SDS011;71269;44.108;3.074;2023-07-20T14:03:03;5.65;;;3.20;;
81716;SDS011;71269;44.108;3.074;2023-07-20T14:05:28;4.93;;;2.58;;
81716;SDS011;71269;44.108;3.074;2023-07-20T14:07:54;4.97;;;2.33;;
81716;SDS011;71269;44.108;3.074;2023-07-20T14:10:19;4.93;;;2.45;;
81716;SDS011;71269;44.108;3.074;2023-07-20T14:12:45;4.70;;;2.55;;
81716;SDS011;71269;44.108;3.074;2023-07-20T14:15:10;5.65;;;2.95;;
81716;SDS011;71269;44.108;3.074;2023-07-20T14:17:36;5.72;;;2.90;;
81716;SDS011;71269;44.108;3.074;2023-07-20T14:20:01;5.25;;;2.70;;
81716;SDS011;71269;44.108;3.074;2023-07-20T14:22:31;4.83;;;2.77;;
81716;SDS011;71269;44.108;3.074;2023-07-20T14:24:57;4.53;;;2.60;;
81716;SDS011;71269;44.108;3.074;2023-07-20T14:27:23;5.43;;;2.40;;
81716;SDS011;71269;44.108;3.074;2023-07-20T14:29:49;5.28;;;2.58;;
81716;SDS011;71269;44.108;3.074;2023-07-20T14:32:14;4.63;;;2.63;;
81716;SDS011;71269;44.108;3.074;2023-07-20T14:34:39;5.78;;;2.95;;
81716;SDS011;71269;44.108;3.074;2023-07-20T14:37:05;5.03;;;2.70;;
81716;SDS011;71269;44.108;3.074;2023-07-20T14:39:31;5.32;;;2.80;;
81716;SDS011;71269;44.108;3.074;2023-07-20T14:41:56;5.97;;;2.65;;
81716;SDS011;71269;44.108;3.074;2023-07-20T14:44:22;5.45;;;2.67;;
81716;SDS011;71269;44.108;3.074;2023-07-20T14:46:48;4.57;;;2.65;;
81716;SDS011;71269;44.108;3.074;2023-07-20T14:49:13;5.35;;;2.80;;
81716;SDS011;71269;44.108;3.074;2023-07-20T14:51:38;4.55;;;2.35;;
81716;SDS011;71269;44.108;3.074;2023-07-20T14:54:08;5.72;;;2.80;;
81716;SDS011;71269;44.108;3.074;2023-07-20T14:56:35;4.47;;;2.67;;
81716;SDS011;71269;44.108;3.074;2023-07-20T14:59:02;4.97;;;2.63;;
81716;SDS011;71269;44.108;3.074;2023-07-20T15:01:29;6.53;;;2.53;;
81716;SDS011;71269;44.108;3.074;2023-07-20T15:03:54;4.63;;;2.70;;
81716;SDS011;71269;44.108;3.074;2023-07-20T15:06:21;7.18;;;2.67;;
81716;SDS011;71269;44.108;3.074;2023-07-20T15:08:47;5.93;;;2.78;;
81716;SDS011;71269;44.108;3.074;2023-07-20T15:11:12;6.18;;;2.30;;
81716;SDS011;71269;44.108;3.074;2023-07-20T15:13:37;4.57;;;2.55;;